Flight Track Log - Related Links

Times and Time Zones

All times are in EDT time to prevent confusion due to time zone crossing. See the KAP29 flight status page for this flight to view local times or setup timezone preferences in your user account.

Time Position Orientation Groundspeed Altitude Reporting Facility
EDT Latitude Longitude Course Direction KTS MPH feet Rate Location/Type
Thu 01:41:38 PM 42.3833 -71.0000 360° North 103 119 400  Level KA90
Thu 01:42:14 PM 42.4000 -71.0000 360° North 137 158 900 981 Climbing KA90
Thu 01:43:22 PM 42.4333 -71.0333 324° Northwest 135 155 2,100 984 Climbing KA90
Thu 01:44:22 PM 42.4667 -71.0500 340° North 138 159 3,000 947 Climbing KA90
Thu 01:45:16 PM 42.5000 -71.0667 340° North 145 167 3,900 939 Climbing KA90
Thu 01:46:17 PM 42.5333 -71.1000 324° Northwest 145 167 4,800 908 Climbing KA90
Thu 01:47:15 PM 42.5667 -71.1333 324° Northwest 146 168 5,700 900 Climbing KA90
Thu 01:48:17 PM 42.6000 -71.1667 324° Northwest 148 170 6,600 885 Climbing KA90
Thu 01:49:17 PM 42.6333 -71.2000 324° Northwest 146 168 7,500 706 Climbing KA90
Thu 01:50:16 PM 42.6833 -71.2167 346° North 161 185 8,000 229 Climbing KA90
Thu 01:51:28 PM 42.7333 -71.2667 324° Northwest 173 199 8,000  Level KA90
Thu 01:52:29 PM 42.7667 -71.3000 324° Northwest 182 209 8,000  Level KA90
Thu 01:53:29 PM 42.8167 -71.3333 334° Northwest 186 214 8,000  Level KA90
Thu 01:54:17 PM 42.8500 -71.3667 324° Northwest 185 213 8,000  Level KA90
Thu 01:55:10 PM 42.8833 -71.4000 324° Northwest 182 209 8,000  Level KA90
Thu 01:56:04 PM 42.9167 -71.4500 312° West 182 209 8,000  Level KA90
Thu 01:56:47 PM 42.9403 -71.4844 313° West 179 206 8,000  Level Boston Center
Thu 01:57:47 PM 42.9719 -71.5292 314° West 179 206 8,000 50 Level Boston Center
Thu 01:58:47 PM 43.0056 -71.5769 314° West 174 200 8,100  Climbing Boston Center
Thu 01:59:47 PM 43.0394 -71.6278 312° West 174 200 8,000  Descending Boston Center
Thu 02:00:47 PM 43.0731 -71.6756 314° West 174 200 8,100 50 Climbing Boston Center
Thu 02:01:47 PM 43.1047 -71.7206 314° West 179 206 8,100  Level Boston Center
Thu 02:02:47 PM 43.1383 -71.7714 312° West 179 206 8,100  Level Boston Center
Thu 02:03:47 PM 43.1697 -71.8167 314° West 179 206 8,100  Level Boston Center
Thu 02:04:47 PM 43.2033 -71.8647 314° West 180 207 8,100  Level Boston Center
Thu 02:05:47 PM 43.2306 -71.9044 313° West 180 207 8,100  Level Boston Center
Thu 02:06:47 PM 43.2706 -71.9639 313° West 185 213 8,100  Level Boston Center
Thu 02:07:47 PM 43.3019 -72.0122 312° West 185 213 8,100  Level Boston Center
Thu 02:08:47 PM 43.3356 -72.0606 314° West 185 213 8,100  Level Boston Center
Thu 02:09:47 PM 43.3689 -72.1089 314° West 180 207 8,100  Level Boston Center
Thu 02:10:47 PM 43.4025 -72.1572 314° West 180 207 8,100  Level Boston Center
Thu 02:11:47 PM 43.4358 -72.2086 312° West 180 207 8,100  Level Boston Center
Thu 02:12:47 PM 43.4672 -72.2569 312° West 180 207 8,100  Level Boston Center
Thu 02:13:47 PM 43.4986 -72.3056 312° West 180 207 8,100  Level Boston Center
Thu 02:14:47 PM 43.5300 -72.3514 313° West 180 207 8,100  Level Boston Center
Thu 02:15:47 PM 43.5653 -72.4000 315° West 180 207 8,100  Level Boston Center
Thu 02:16:47 PM 43.5986 -72.4486 313° West 180 207 8,100  Level Boston Center
Thu 02:17:47 PM 43.6300 -72.4975 312° West 180 207 8,100  Level Boston Center
Thu 02:18:47 PM 43.6569 -72.5378 313° West 180 207 8,100  Level Boston Center
Thu 02:19:47 PM 43.6967 -72.5981 312° West 180 207 8,100  Level Boston Center
Thu 02:20:47 PM 43.7236 -72.6356 315° West 180 207 8,100  Level Boston Center
Thu 02:21:47 PM 43.7589 -72.6872 313° West 180 207 8,100  Level Boston Center
Thu 02:22:47 PM 43.7900 -72.7392 310° West 180 207 8,100  Level Boston Center
Thu 02:23:59 PM 43.8314 -72.8028 312° West 180 207 8,100  Level Boston Center
Thu 02:24:59 PM 43.8647 -72.8519 313° West 180 207 8,100  Level Boston Center
Thu 02:25:59 PM 43.8978 -72.9011 313° West 175 201 8,100  Level Boston Center
Thu 02:26:59 PM 43.9289 -72.9475 313° West 175 201 8,100  Level Boston Center
Thu 02:27:59 PM 43.9619 -72.9997 311° West 175 201 8,100  Level Boston Center
Thu 02:28:59 PM 43.9950 -73.0489 313° West 175 201 8,100  Level Boston Center
Thu 02:29:59 PM 44.0281 -73.1014 311° West 175 201 8,100 -200 Level Boston Center
Thu 02:30:59 PM 44.0611 -73.1508 313° West 180 207 7,700 -400 Descending Boston Center
Thu 02:31:59 PM 44.0942 -73.2031 311° West 191 220 7,300 -300 Descending Boston Center
Thu 02:32:59 PM 44.1314 -73.2586 313° West 191 220 7,100 -100 Descending Boston Center
Thu 02:33:59 PM 44.1664 -73.3111 313° West 186 214 7,100  Level Boston Center
Thu 02:35:11 PM 44.2033 -73.3697 311° West 181 208 7,100  Level Boston Center
Thu 02:36:11 PM 44.2406 -73.4253 313° West 176 203 7,100  Level Boston Center
Thu 02:37:11 PM 44.2733 -73.4781 311° West 176 203 7,100  Level Boston Center
Thu 02:38:11 PM 44.3042 -73.5308 309° West 170 196 7,100  Level Boston Center
Thu 02:39:11 PM 44.3369 -73.5778 314° West 170 196 7,100 -91 Level Boston Center
Thu 02:40:23 PM 44.3781 -73.6397 313° West 175 201 6,900 -273 Descending Boston Center
Thu 02:41:23 PM 44.4128 -73.6928 313° West 180 207 6,500 -350 Descending Boston Center
Thu 02:42:23 PM 44.4497 -73.7486 313° West 186 214 6,200 -200 Descending Boston Center
Thu 02:43:23 PM 44.4844 -73.8047 311° West 191 220 6,100 -50 Descending Boston Center
Thu 02:44:23 PM 44.5153 -73.8492 314° West 180 207 6,100  Level Boston Center
Thu 02:45:23 PM 44.5436 -73.9022 307° West 180 207 6,100  Level Boston Center
Thu 02:46:23 PM 44.5597 -73.9639 290° West 166 191 6,100 -250 Level Boston Center
Thu 02:47:23 PM 44.5608 -74.0250 271° West 161 185 5,600 -500 Descending Boston Center
Thu 02:48:23 PM 44.5292 -74.0650 222° Southwest 150 173 5,100 -600 Descending Boston Center
Thu 02:49:23 PM 44.4931 -74.1019 216° Southwest 162 186 4,400 -650 Descending Boston Center
Thu 02:50:23 PM 44.4614 -74.1328 215° Southwest 162 186 3,800 -850 Descending Boston Center
Thu 02:51:23 PM 44.4233 -74.1725 217° Southwest 162 186 2,700 -650 Descending Boston Center
Thu 02:52:23 PM 44.3958 -74.1978 213° Southwest 157 181 2,500 2,150 Descending Boston Center
Thu 02:53:23 PM 44.3514 -74.2400 214° Southwest 157 181 7,000 2,250 Climbing Boston Center
Thu 02:54:23 PM 44.3133 -74.2739 213° Southwest 157 181 7,000  Level Boston Center
Thu 02:55:23 PM 44.2775 -74.3103 216° Southwest 157 181 7,000  Level Boston Center
Thu 02:56:23 PM 44.3936 -74.2094 32° Northeast 157 181 7,000  Level Boston Center
Thu 02:57:23 PM 44.3828 -74.2322 236° Southwest 157 181 7,000  Level Boston Center
Thu 02:58:23 PM 44.3614 -74.2753 235° Southwest 157 181 7,000  Level Boston Center
Thu 02:59:23 PM 44.3397 -74.3181 235° Southwest 157 181 7,000  Level Boston Center
Thu 03:00:23 PM 44.3311 -74.3353 235° Southwest 157 181 7,000  Level Boston Center
Thu 03:01:23 PM 44.3811 -74.2033 62° Northeast 157 181 7,000  Level Boston Center
Thu 03:02:35 PM 44.3725 -74.2203 235° Southwest 157 181 7,000  Level Boston Center
Thu 03:03:47 PM 44.3467 -74.2719 235° Southwest 157 181 7,000  Level Boston Center
Thu 03:04:47 PM 44.3253 -74.3147 235° Southwest 157 181 7,000  Level Boston Center

Login

Don't have an account? Register now (free) for customized features, flight alerts, and more!